sensor_id;sensor_type;location;lat;lon;timestamp;pressure;altitude;pressure_sealevel;temperature;humidity
65359;BME280;52491;45.900;6.346;2023-03-23T00:01:11;93539.91;;;24.55;27.67
65359;BME280;52491;45.900;6.346;2023-03-23T00:03:39;93546.31;;;24.54;27.75
65359;BME280;52491;45.900;6.346;2023-03-23T00:06:05;93540.97;;;24.54;27.90
65359;BME280;52491;45.900;6.346;2023-03-23T00:08:38;93537.53;;;24.53;27.73
65359;BME280;52491;45.900;6.346;2023-03-23T00:11:16;93544.69;;;24.53;27.68
65359;BME280;52491;45.900;6.346;2023-03-23T00:13:44;93544.69;;;24.53;27.74
65359;BME280;52491;45.900;6.346;2023-03-23T00:16:11;93552.19;;;24.51;28.01
65359;BME280;52491;45.900;6.346;2023-03-23T00:18:48;93545.78;;;24.52;27.69
65359;BME280;52491;45.900;6.346;2023-03-23T00:21:18;93540.69;;;24.50;28.08
65359;BME280;52491;45.900;6.346;2023-03-23T00:23:44;93536.19;;;24.51;27.78
65359;BME280;52491;45.900;6.346;2023-03-23T00:26:10;93547.66;;;24.51;27.83
65359;BME280;52491;45.900;6.346;2023-03-23T00:28:36;93560.19;;;24.51;27.80
65359;BME280;52491;45.900;6.346;2023-03-23T00:31:06;93548.69;;;24.50;27.81
65359;BME280;52491;45.900;6.346;2023-03-23T00:33:33;93560.44;;;24.49;27.52
65359;BME280;52491;45.900;6.346;2023-03-23T00:36:04;93563.09;;;24.49;27.70
65359;BME280;52491;45.900;6.346;2023-03-23T00:38:31;93556.97;;;24.49;27.45
65359;BME280;52491;45.900;6.346;2023-03-23T00:40:57;93572.97;;;24.49;27.37
65359;BME280;52491;45.900;6.346;2023-03-23T00:43:23;93572.97;;;24.49;27.74
65359;BME280;52491;45.900;6.346;2023-03-23T00:45:50;93568.44;;;24.49;27.84
65359;BME280;52491;45.900;6.346;2023-03-23T00:48:20;93572.97;;;24.49;27.91
65359;BME280;52491;45.900;6.346;2023-03-23T00:50:46;93567.63;;;24.49;27.70
65359;BME280;52491;45.900;6.346;2023-03-23T00:53:12;93564.19;;;24.48;27.57
65359;BME280;52491;45.900;6.346;2023-03-23T00:55:37;93566.84;;;24.48;27.84
65359;BME280;52491;45.900;6.346;2023-03-23T00:58:03;93550.84;;;24.48;27.43
65359;BME280;52491;45.900;6.346;2023-03-23T01:00:28;93555.66;;;24.46;27.88
65359;BME280;52491;45.900;6.346;2023-03-23T01:02:54;93555.66;;;24.46;27.76
65359;BME280;52491;45.900;6.346;2023-03-23T01:05:20;93563.63;;;24.46;27.88
65359;BME280;52491;45.900;6.346;2023-03-23T01:07:46;93576.16;;;24.46;27.79
65359;BME280;52491;45.900;6.346;2023-03-23T01:10:12;93584.97;;;24.46;27.57
65359;BME280;52491;45.900;6.346;2023-03-23T01:12:42;93570.84;;;24.46;27.79
65359;BME280;52491;45.900;6.346;2023-03-23T01:15:12;93568.19;;;24.46;27.53
65359;BME280;52491;45.900;6.346;2023-03-23T01:17:38;93580.72;;;24.45;27.82
65359;BME280;52491;45.900;6.346;2023-03-23T01:20:04;93571.63;;;24.46;27.81
65359;BME280;52491;45.900;6.346;2023-03-23T01:22:32;93558.56;;;24.45;27.94
65359;BME280;52491;45.900;6.346;2023-03-23T01:24:57;93549.78;;;24.44;27.60
65359;BME280;52491;45.900;6.346;2023-03-23T01:27:23;93554.31;;;24.44;27.47
65359;BME280;52491;45.900;6.346;2023-03-23T01:29:49;93542.88;;;24.43;27.48
65359;BME280;52491;45.900;6.346;2023-03-23T01:32:14;93540.44;;;24.42;27.83
65359;BME280;52491;45.900;6.346;2023-03-23T01:34:40;93550.88;;;24.43;27.69
65359;BME280;52491;45.900;6.346;2023-03-23T01:37:06;93548.19;;;24.43;27.75
65359;BME280;52491;45.900;6.346;2023-03-23T01:39:31;93534.06;;;24.43;27.42
65359;BME280;52491;45.900;6.346;2023-03-23T01:41:57;93542.03;;;24.43;27.88
65359;BME280;52491;45.900;6.346;2023-03-23T01:46:48;93540.44;;;24.42;27.63
65359;BME280;52491;45.900;6.346;2023-03-23T01:49:20;93539.38;;;24.43;27.71
65359;BME280;52491;45.900;6.346;2023-03-23T01:51:49;93544.72;;;24.43;27.51
65359;BME280;52491;45.900;6.346;2023-03-23T01:54:20;93537.75;;;24.42;27.45
65359;BME280;52491;45.900;6.346;2023-03-23T01:56:52;93532.44;;;24.42;27.59
65359;BME280;52491;45.900;6.346;2023-03-23T01:59:20;93534.31;;;24.41;27.65
65359;BME280;52491;45.900;6.346;2023-03-23T02:01:46;93530.84;;;24.41;27.67
65359;BME280;52491;45.900;6.346;2023-03-23T02:04:13;93522.06;;;24.40;27.48
65359;BME280;52491;45.900;6.346;2023-03-23T02:06:40;93526.59;;;24.40;27.31
65359;BME280;52491;45.900;6.346;2023-03-23T02:09:06;93527.66;;;24.39;27.49
65359;BME280;52491;45.900;6.346;2023-03-23T02:11:32;93522.31;;;24.39;27.81
65359;BME280;52491;45.900;6.346;2023-03-23T02:13:58;93521.28;;;24.40;27.66
65359;BME280;52491;45.900;6.346;2023-03-23T02:19:25;93515.94;;;24.40;27.68
65359;BME280;52491;45.900;6.346;2023-03-23T02:27:11;93498.34;;;24.39;27.65
65359;BME280;52491;45.900;6.346;2023-03-23T02:35:00;93504.22;;;24.35;27.40
65359;BME280;52491;45.900;6.346;2023-03-23T02:37:35;93500.75;;;24.35;27.38
65359;BME280;52491;45.900;6.346;2023-03-23T02:40:09;93497.31;;;24.34;27.35
65359;BME280;52491;45.900;6.346;2023-03-23T02:42:39;93491.19;;;24.34;27.74
65359;BME280;52491;45.900;6.346;2023-03-23T02:45:09;93502.34;;;24.36;27.18
65359;BME280;52491;45.900;6.346;2023-03-23T02:47:38;93491.97;;;24.34;27.41
65359;BME280;52491;45.900;6.346;2023-03-23T02:50:06;93491.97;;;24.34;27.73
65359;BME280;52491;45.900;6.346;2023-03-23T02:52:33;93488.78;;;24.32;27.64
65359;BME280;52491;45.900;6.346;2023-03-23T02:55:01;93484.53;;;24.31;27.69
65359;BME280;52491;45.900;6.346;2023-03-23T02:57:28;93478.13;;;24.32;27.36
65359;BME280;52491;45.900;6.346;2023-03-23T02:59:54;93473.59;;;24.33;27.63
65359;BME280;52491;45.900;6.346;2023-03-23T03:02:31;93467.47;;;24.32;27.57
65359;BME280;52491;45.900;6.346;2023-03-23T03:10:31;93463.75;;;24.28;27.62
65359;BME280;52491;45.900;6.346;2023-03-23T03:16:06;93444.84;;;24.30;27.65
65359;BME280;52491;45.900;6.346;2023-03-23T03:21:04;93450.94;;;24.30;27.45
65359;BME280;52491;45.900;6.346;2023-03-23T03:23:33;93443.50;;;24.27;27.60
65359;BME280;52491;45.900;6.346;2023-03-23T03:26:02;93446.69;;;24.29;27.65
65359;BME280;52491;45.900;6.346;2023-03-23T03:28:31;93448.28;;;24.30;27.54
65359;BME280;52491;45.900;6.346;2023-03-23T03:31:00;93444.03;;;24.29;27.45
65359;BME280;52491;45.900;6.346;2023-03-23T03:33:28;93445.63;;;24.30;27.39
65359;BME280;52491;45.900;6.346;2023-03-23T03:36:02;93440.28;;;24.30;27.45
65359;BME280;52491;45.900;6.346;2023-03-23T03:38:28;93439.78;;;24.28;27.37
65359;BME280;52491;45.900;6.346;2023-03-23T03:40:55;93441.38;;;24.29;27.37
65359;BME280;52491;45.900;6.346;2023-03-23T03:43:21;93429.94;;;24.29;27.56
65359;BME280;52491;45.900;6.346;2023-03-23T03:45:46;93434.97;;;24.30;27.28
65359;BME280;52491;45.900;6.346;2023-03-23T03:48:12;93440.59;;;24.29;27.67
65359;BME280;52491;45.900;6.346;2023-03-23T03:50:38;93436.84;;;24.30;27.67
65359;BME280;52491;45.900;6.346;2023-03-23T03:53:05;93426.97;;;24.30;27.76
65359;BME280;52491;45.900;6.346;2023-03-23T03:55:31;93431.50;;;24.30;27.40
65359;BME280;52491;45.900;6.346;2023-03-23T03:58:01;93432.59;;;24.29;27.62
65359;BME280;52491;45.900;6.346;2023-03-23T04:00:28;93431.81;;;24.28;27.52
65359;BME280;52491;45.900;6.346;2023-03-23T04:02:53;93424.59;;;24.29;27.50
65359;BME280;52491;45.900;6.346;2023-03-23T04:05:23;93432.59;;;24.29;27.48
65359;BME280;52491;45.900;6.346;2023-03-23T04:07:50;93429.13;;;24.28;27.34
65359;BME280;52491;45.900;6.346;2023-03-23T04:10:18;93439.78;;;24.28;27.48
65359;BME280;52491;45.900;6.346;2023-03-23T04:12:48;93419.81;;;24.26;27.43
65359;BME280;52491;45.900;6.346;2023-03-23T04:15:14;93419.81;;;24.26;27.68
65359;BME280;52491;45.900;6.346;2023-03-23T04:17:39;93416.06;;;24.27;27.26
65359;BME280;52491;45.900;6.346;2023-03-23T04:20:07;93428.59;;;24.26;27.57
65359;BME280;52491;45.900;6.346;2023-03-23T04:22:47;93419.28;;;24.24;27.48
65359;BME280;52491;45.900;6.346;2023-03-23T04:25:16;93423.53;;;24.25;27.32
65359;BME280;52491;45.900;6.346;2023-03-23T04:27:50;93418.19;;;24.25;27.36
65359;BME280;52491;45.900;6.346;2023-03-23T04:30:21;93424.31;;;24.25;27.61
65359;BME280;52491;45.900;6.346;2023-03-23T04:32:49;93420.63;;;24.26;27.33
65359;BME280;52491;45.900;6.346;2023-03-23T04:35:23;93424.31;;;24.25;27.26
65359;BME280;52491;45.900;6.346;2023-03-23T04:37:51;93425.94;;;24.26;27.37
65359;BME280;52491;45.900;6.346;2023-03-23T04:40:17;93424.31;;;24.25;27.60
65359;BME280;52491;45.900;6.346;2023-03-23T04:42:44;93425.09;;;24.36;27.33
65359;BME280;52491;45.900;6.346;2023-03-23T04:45:20;93426.94;;;24.41;27.36
65359;BME280;52491;45.900;6.346;2023-03-23T04:47:51;93419.47;;;24.43;27.15
65359;BME280;52491;45.900;6.346;2023-03-23T04:50:24;93423.75;;;24.44;27.03
65359;BME280;52491;45.900;6.346;2023-03-23T04:52:51;93414.97;;;24.43;27.24
65359;BME280;52491;45.900;6.346;2023-03-23T04:55:18;93417.34;;;24.45;27.27
65359;BME280;52491;45.900;6.346;2023-03-23T04:57:44;93417.38;;;24.34;27.17
65359;BME280;52491;45.900;6.346;2023-03-23T05:00:10;93424.84;;;24.27;27.62
65359;BME280;52491;45.900;6.346;2023-03-23T05:02:43;93423.53;;;24.25;27.52
65359;BME280;52491;45.900;6.346;2023-03-23T05:05:11;93429.63;;;24.30;27.28
65359;BME280;52491;45.900;6.346;2023-03-23T05:07:41;93430.41;;;24.36;27.44
65359;BME280;52491;45.900;6.346;2023-03-23T05:10:09;93438.16;;;24.38;27.18
65359;BME280;52491;45.900;6.346;2023-03-23T05:12:35;93432.81;;;24.38;27.12
65359;BME280;52491;45.900;6.346;2023-03-23T05:15:02;93437.06;;;24.39;27.09
65359;BME280;52491;45.900;6.346;2023-03-23T05:17:27;93435.47;;;24.38;27.13
65359;BME280;52491;45.900;6.346;2023-03-23T05:19:56;93435.47;;;24.38;27.07
65359;BME280;52491;45.900;6.346;2023-03-23T05:22:22;93430.94;;;24.38;27.20
65359;BME280;52491;45.900;6.346;2023-03-23T05:24:48;93431.19;;;24.42;27.02
65359;BME280;52491;45.900;6.346;2023-03-23T05:27:18;93434.66;;;24.42;27.26
65359;BME280;52491;45.900;6.346;2023-03-23T05:29:45;93433.84;;;24.42;27.32
65359;BME280;52491;45.900;6.346;2023-03-23T05:32:14;93430.69;;;24.40;27.39
65359;BME280;52491;45.900;6.346;2023-03-23T05:34:40;93433.59;;;24.38;27.39
65359;BME280;52491;45.900;6.346;2023-03-23T05:37:07;93430.16;;;24.38;27.45
65359;BME280;52491;45.900;6.346;2023-03-23T05:39:35;93432.53;;;24.39;27.78
65359;BME280;52491;45.900;6.346;2023-03-23T05:42:00;93437.84;;;24.39;27.38
65359;BME280;52491;45.900;6.346;2023-03-23T05:44:26;93435.19;;;24.39;27.53
65359;BME280;52491;45.900;6.346;2023-03-23T05:46:52;93437.84;;;24.39;27.40
65359;BME280;52491;45.900;6.346;2023-03-23T05:49:18;93429.06;;;24.39;27.53
65359;BME280;52491;45.900;6.346;2023-03-23T05:51:44;93438.13;;;24.43;27.38
65359;BME280;52491;45.900;6.346;2023-03-23T05:54:11;93444.28;;;24.43;27.75
65359;BME280;52491;45.900;6.346;2023-03-23T05:56:38;93443.19;;;24.44;27.50
65359;BME280;52491;45.900;6.346;2023-03-23T05:59:04;93440.53;;;24.44;27.88
65359;BME280;52491;45.900;6.346;2023-03-23T06:01:30;93447.19;;;24.42;27.72
65359;BME280;52491;45.900;6.346;2023-03-23T06:03:57;93449.59;;;24.38;27.70
65359;BME280;52491;45.900;6.346;2023-03-23T06:06:29;93461.59;;;24.35;27.99
65359;BME280;52491;45.900;6.346;2023-03-23T06:08:57;93459.22;;;24.34;27.63
65359;BME280;52491;45.900;6.346;2023-03-23T06:11:25;93449.63;;;24.33;28.02
65359;BME280;52491;45.900;6.346;2023-03-23T06:13:51;93454.16;;;24.32;27.98
65359;BME280;52491;45.900;6.346;2023-03-23T06:16:18;93456.81;;;24.32;27.96
65359;BME280;52491;45.900;6.346;2023-03-23T06:18:44;93460.56;;;24.31;27.76
65359;BME280;52491;45.900;6.346;2023-03-23T06:21:11;93461.09;;;24.28;27.75
65359;BME280;52491;45.900;6.346;2023-03-23T06:23:37;93462.41;;;24.31;27.62
65359;BME280;52491;45.900;6.346;2023-03-23T06:26:05;93461.59;;;24.30;27.91
65359;BME280;52491;45.900;6.346;2023-03-23T06:28:32;93460.03;;;24.29;27.86
65359;BME280;52491;45.900;6.346;2023-03-23T06:31:03;93465.88;;;24.31;27.66
65359;BME280;52491;45.900;6.346;2023-03-23T06:33:32;93476.50;;;24.37;27.54
65359;BME280;52491;45.900;6.346;2023-03-23T06:35:59;93478.38;;;24.36;27.82
65359;BME280;52491;45.900;6.346;2023-03-23T06:38:25;93480.25;;;24.30;27.42
65359;BME280;52491;45.900;6.346;2023-03-23T06:40:52;93483.50;;;24.17;27.85
65359;BME280;52491;45.900;6.346;2023-03-23T06:43:18;93480.84;;;24.17;27.94
65359;BME280;52491;45.900;6.346;2023-03-23T06:45:44;93481.63;;;24.18;28.16
65359;BME280;52491;45.900;6.346;2023-03-23T06:48:10;93485.88;;;24.19;28.11
65359;BME280;52491;45.900;6.346;2023-03-23T06:50:35;93480.31;;;24.20;28.39
65359;BME280;52491;45.900;6.346;2023-03-23T06:53:01;93481.63;;;24.23;28.17
65359;BME280;52491;45.900;6.346;2023-03-23T06:55:27;93476.00;;;24.24;28.28
65359;BME280;52491;45.900;6.346;2023-03-23T06:57:53;93482.94;;;24.25;28.14
65359;BME280;52491;45.900;6.346;2023-03-23T07:00:19;93477.59;;;24.25;28.33
65359;BME280;52491;45.900;6.346;2023-03-23T07:02:44;93480.78;;;24.27;28.01
65359;BME280;52491;45.900;6.346;2023-03-23T07:05:11;93473.59;;;24.28;28.02
65359;BME280;52491;45.900;6.346;2023-03-23T07:07:37;93476.00;;;24.29;28.01
65359;BME280;52491;45.900;6.346;2023-03-23T07:10:04;93468.53;;;24.31;28.11
65359;BME280;52491;45.900;6.346;2023-03-23T07:12:31;93462.69;;;24.29;28.40
65359;BME280;52491;45.900;6.346;2023-03-23T07:14:56;93466.94;;;24.30;28.37
65359;BME280;52491;45.900;6.346;2023-03-23T07:17:22;93464.25;;;24.30;28.07
65359;BME280;52491;45.900;6.346;2023-03-23T07:19:48;93453.94;;;24.19;28.33
65359;BME280;52491;45.900;6.346;2023-03-23T07:22:15;93457.34;;;24.29;28.38
65359;BME280;52491;45.900;6.346;2023-03-23T07:24:41;93464.25;;;24.30;28.08
65359;BME280;52491;45.900;6.346;2023-03-23T07:27:07;93462.94;;;24.33;28.34
65359;BME280;52491;45.900;6.346;2023-03-23T07:29:33;93463.47;;;24.35;28.18
65359;BME280;52491;45.900;6.346;2023-03-23T07:32:01;93465.34;;;24.34;27.92
65359;BME280;52491;45.900;6.346;2023-03-23T07:34:27;93475.19;;;24.34;28.36
65359;BME280;52491;45.900;6.346;2023-03-23T07:36:53;93470.94;;;24.33;28.16
65359;BME280;52491;45.900;6.346;2023-03-23T07:39:19;93475.47;;;24.32;28.17
65359;BME280;52491;45.900;6.346;2023-03-23T07:41:45;93471.22;;;24.31;28.31
65359;BME280;52491;45.900;6.346;2023-03-23T07:44:11;93480.78;;;24.32;28.25
65359;BME280;52491;45.900;6.346;2023-03-23T07:46:36;93472.78;;;24.32;28.36
65359;BME280;52491;45.900;6.346;2023-03-23T07:49:02;93468.53;;;24.31;28.51
65359;BME280;52491;45.900;6.346;2023-03-23T07:51:31;93464.81;;;24.32;28.24
65359;BME280;52491;45.900;6.346;2023-03-23T07:53:57;93467.47;;;24.32;28.34
65359;BME280;52491;45.900;6.346;2023-03-23T07:56:23;93471.72;;;24.33;28.54
65359;BME280;52491;45.900;6.346;2023-03-23T07:58:49;93471.72;;;24.33;28.31
65359;BME280;52491;45.900;6.346;2023-03-23T08:01:14;93470.38;;;24.36;28.22
65359;BME280;52491;45.900;6.346;2023-03-23T08:03:41;93464.78;;;24.38;28.33
65359;BME280;52491;45.900;6.346;2023-03-23T08:06:08;93463.72;;;24.39;28.63
65359;BME280;52491;45.900;6.346;2023-03-23T08:08:35;93461.34;;;24.37;28.23
65359;BME280;52491;45.900;6.346;2023-03-23T08:11:01;93468.25;;;24.38;28.18
65359;BME280;52491;45.900;6.346;2023-03-23T08:13:27;93466.91;;;24.35;28.42
65359;BME280;52491;45.900;6.346;2023-03-23T08:15:53;93467.44;;;24.38;28.60
65359;BME280;52491;45.900;6.346;2023-03-23T08:18:18;93463.72;;;24.39;28.38
65359;BME280;52491;45.900;6.346;2023-03-23T08:20:44;93463.19;;;24.37;28.30
65359;BME280;52491;45.900;6.346;2023-03-23T08:23:10;93464.25;;;24.35;28.55
65359;BME280;52491;45.900;6.346;2023-03-23T08:25:36;93456.25;;;24.35;28.27
65359;BME280;52491;45.900;6.346;2023-03-23T08:28:02;93458.94;;;24.35;28.62
65359;BME280;52491;45.900;6.346;2023-03-23T08:30:29;93464.78;;;24.38;28.19
65359;BME280;52491;45.900;6.346;2023-03-23T08:32:56;93466.91;;;24.35;28.63
65359;BME280;52491;45.900;6.346;2023-03-23T08:35:23;93471.16;;;24.37;28.33
65359;BME280;52491;45.900;6.346;2023-03-23T08:37:49;93468.50;;;24.37;28.27
65359;BME280;52491;45.900;6.346;2023-03-23T08:40:21;93475.44;;;24.38;28.47
65359;BME280;52491;45.900;6.346;2023-03-23T08:42:48;93468.50;;;24.37;28.46
65359;BME280;52491;45.900;6.346;2023-03-23T08:45:17;93470.13;;;24.38;28.72
65359;BME280;52491;45.900;6.346;2023-03-23T08:47:43;93471.69;;;24.39;28.52
65359;BME280;52491;45.900;6.346;2023-03-23T08:50:12;93486.09;;;24.38;28.29
65359;BME280;52491;45.900;6.346;2023-03-23T08:52:38;93483.44;;;24.38;28.37
65359;BME280;52491;45.900;6.346;2023-03-23T08:55:05;93486.63;;;24.40;28.32
65359;BME280;52491;45.900;6.346;2023-03-23T08:57:34;93480.50;;;24.39;28.62
65359;BME280;52491;45.900;6.346;2023-03-23T09:00:03;93483.69;;;24.41;28.43
65359;BME280;52491;45.900;6.346;2023-03-23T09:02:41;93476.25;;;24.38;28.48
65359;BME280;52491;45.900;6.346;2023-03-23T09:05:08;93473.03;;;24.36;28.51
65359;BME280;52491;45.900;6.346;2023-03-23T09:07:36;93477.03;;;24.39;28.29
65359;BME280;52491;45.900;6.346;2023-03-23T09:10:02;93482.34;;;24.39;28.52
65359;BME280;52491;45.900;6.346;2023-03-23T09:12:28;93478.91;;;24.38;28.46
65359;BME280;52491;45.900;6.346;2023-03-23T09:14:55;93482.34;;;24.39;28.39
65359;BME280;52491;45.900;6.346;2023-03-23T09:17:20;93482.34;;;24.39;28.32
65359;BME280;52491;45.900;6.346;2023-03-23T09:19:46;93477.81;;;24.39;28.57
65359;BME280;52491;45.900;6.346;2023-03-23T09:22:11;93486.91;;;24.38;28.39
65359;BME280;52491;45.900;6.346;2023-03-23T09:24:37;93494.63;;;24.40;28.33
65359;BME280;52491;45.900;6.346;2023-03-23T09:27:03;93493.03;;;24.39;28.39
65359;BME280;52491;45.900;6.346;2023-03-23T09:29:29;93493.03;;;24.39;28.71
65359;BME280;52491;45.900;6.346;2023-03-23T09:31:55;93498.34;;;24.39;28.32
65359;BME280;52491;45.900;6.346;2023-03-23T09:34:21;93505.53;;;24.38;28.40
65359;BME280;52491;45.900;6.346;2023-03-23T09:36:47;93498.63;;;24.37;28.51
65359;BME280;52491;45.900;6.346;2023-03-23T09:39:13;93495.97;;;24.37;28.66
65359;BME280;52491;45.900;6.346;2023-03-23T09:42:00;93496.75;;;24.38;28.37
65359;BME280;52491;45.900;6.346;2023-03-23T09:47:29;93501.56;;;24.35;28.63
65359;BME280;52491;45.900;6.346;2023-03-23T09:50:28;93491.97;;;24.34;28.38
65359;BME280;52491;45.900;6.346;2023-03-23T09:53:12;93490.09;;;24.35;28.44
65359;BME280;52491;45.900;6.346;2023-03-23T09:55:39;93484.78;;;24.35;28.80
65359;BME280;52491;45.900;6.346;2023-03-23T09:58:23;93481.81;;;24.37;28.80
65359;BME280;52491;45.900;6.346;2023-03-23T10:01:07;93475.44;;;24.38;28.58
65359;BME280;52491;45.900;6.346;2023-03-23T10:03:40;93478.13;;;24.38;28.45
65359;BME280;52491;45.900;6.346;2023-03-23T10:06:10;93475.97;;;24.40;28.71
65359;BME280;52491;45.900;6.346;2023-03-23T10:08:44;93474.38;;;24.39;28.65
65359;BME280;52491;45.900;6.346;2023-03-23T10:16:59;93487.69;;;24.39;28.46
65359;BME280;52491;45.900;6.346;2023-03-23T10:19:33;93486.91;;;24.38;28.68
65359;BME280;52491;45.900;6.346;2023-03-23T10:22:08;93492.22;;;24.38;28.61
65359;BME280;52491;45.900;6.346;2023-03-23T10:27:43;93489.81;;;24.37;28.41
65359;BME280;52491;45.900;6.346;2023-03-23T10:32:50;93494.13;;;24.27;28.54
65359;BME280;52491;45.900;6.346;2023-03-23T10:35:32;93494.41;;;24.26;28.60
65359;BME280;52491;45.900;6.346;2023-03-23T10:38:06;93484.53;;;24.26;28.86
65359;BME280;52491;45.900;6.346;2023-03-23T10:40:49;93470.13;;;24.27;28.64
65359;BME280;52491;45.900;6.346;2023-03-23T10:43:15;93474.41;;;24.28;28.92
65359;BME280;52491;45.900;6.346;2023-03-23T10:45:44;93481.31;;;24.40;28.57
65359;BME280;52491;45.900;6.346;2023-03-23T10:48:15;93478.34;;;24.41;28.49
65359;BME280;52491;45.900;6.346;2023-03-23T10:50:44;93477.03;;;24.44;28.69
65359;BME280;52491;45.900;6.346;2023-03-23T10:53:36;93483.44;;;24.43;28.39
65359;BME280;52491;45.900;6.346;2023-03-23T10:56:03;93483.69;;;24.41;28.37
65359;BME280;52491;45.900;6.346;2023-03-23T10:58:31;93482.59;;;24.42;28.54
65359;BME280;52491;45.900;6.346;2023-03-23T11:01:03;93469.28;;;24.42;28.71
65359;BME280;52491;45.900;6.346;2023-03-23T11:06:06;93475.19;;;24.44;28.41
65359;BME280;52491;45.900;6.346;2023-03-23T11:08:58;93468.78;;;24.45;28.49
65359;BME280;52491;45.900;6.346;2023-03-23T11:11:31;93475.44;;;24.43;28.38
65359;BME280;52491;45.900;6.346;2023-03-23T11:13:59;93471.72;;;24.44;28.42
65359;BME280;52491;45.900;6.346;2023-03-23T11:16:33;93479.72;;;24.44;28.44
65359;BME280;52491;45.900;6.346;2023-03-23T11:19:12;93485.03;;;24.44;28.77
65359;BME280;52491;45.900;6.346;2023-03-23T11:21:39;93481.03;;;24.41;28.28
65359;BME280;52491;45.900;6.346;2023-03-23T11:24:05;93482.91;;;24.41;28.48
65359;BME280;52491;45.900;6.346;2023-03-23T11:26:33;93478.34;;;24.41;28.37
65359;BME280;52491;45.900;6.346;2023-03-23T11:29:20;93474.91;;;24.41;28.27
65359;BME280;52491;45.900;6.346;2023-03-23T11:31:50;93474.91;;;24.41;28.55
65359;BME280;52491;45.900;6.346;2023-03-23T11:37:33;93472.78;;;24.43;28.47
65359;BME280;52491;45.900;6.346;2023-03-23T11:40:14;93467.44;;;24.43;28.48
65359;BME280;52491;45.900;6.346;2023-03-23T11:42:48;93471.94;;;24.42;28.43
65359;BME280;52491;45.900;6.346;2023-03-23T11:47:45;93479.44;;;24.40;27.68
65359;BME280;52491;45.900;6.346;2023-03-23T11:50:24;93474.09;;;24.40;27.95
65359;BME280;52491;45.900;6.346;2023-03-23T11:55:36;93467.16;;;24.39;28.22
65359;BME280;52491;45.900;6.346;2023-03-23T11:58:11;93468.00;;;24.40;28.34
65359;BME280;52491;45.900;6.346;2023-03-23T12:01:28;93459.16;;;24.39;28.38
65359;BME280;52491;45.900;6.346;2023-03-23T12:06:14;93460.50;;;24.42;28.51
65359;BME280;52491;45.900;6.346;2023-03-23T12:08:53;93459.44;;;24.43;28.49
65359;BME280;52491;45.900;6.346;2023-03-23T12:22:35;93453.06;;;24.44;28.75
65359;BME280;52491;45.900;6.346;2023-03-23T12:30:56;93454.66;;;24.45;28.88
65359;BME280;52491;45.900;6.346;2023-03-23T12:39:13;93462.66;;;24.45;28.70
65359;BME280;52491;45.900;6.346;2023-03-23T12:42:33;93469.84;;;24.44;28.77
65359;BME280;52491;45.900;6.346;2023-03-23T12:47:41;93476.25;;;24.43;28.71
65359;BME280;52491;45.900;6.346;2023-03-23T12:50:25;93471.94;;;24.42;28.84
65359;BME280;52491;45.900;6.346;2023-03-23T12:53:08;93483.69;;;24.41;29.04
65359;BME280;52491;45.900;6.346;2023-03-23T12:55:47;93486.34;;;24.41;28.93
65359;BME280;52491;45.900;6.346;2023-03-23T12:58:25;93493.56;;;24.41;29.01
65359;BME280;52491;45.900;6.346;2023-03-23T13:01:02;93495.44;;;24.40;28.83
65359;BME280;52491;45.900;6.346;2023-03-23T13:03:42;93502.34;;;24.41;28.95
65359;BME280;52491;45.900;6.346;2023-03-23T13:06:14;93513.78;;;24.42;28.86
65359;BME280;52491;45.900;6.346;2023-03-23T13:08:51;93523.41;;;24.43;28.81
65359;BME280;52491;45.900;6.346;2023-03-23T13:11:36;93505.00;;;24.41;28.93
65359;BME280;52491;45.900;6.346;2023-03-23T13:17:05;93490.38;;;24.44;28.97
65359;BME280;52491;45.900;6.346;2023-03-23T13:24:36;93509.53;;;24.41;29.21
65359;BME280;52491;45.900;6.346;2023-03-23T13:27:04;93485.81;;;24.39;29.35
65359;BME280;52491;45.900;6.346;2023-03-23T13:29:32;93494.63;;;24.40;29.55
65359;BME280;52491;45.900;6.346;2023-03-23T13:32:12;93482.34;;;24.39;29.46
65359;BME280;52491;45.900;6.346;2023-03-23T13:34:41;93489.31;;;24.40;29.40
65359;BME280;52491;45.900;6.346;2023-03-23T13:39:52;93494.91;;;24.33;29.25
65359;BME280;52491;45.900;6.346;2023-03-23T13:42:26;93491.97;;;24.34;29.67
65359;BME280;52491;45.900;6.346;2023-03-23T13:49:53;93481.34;;;24.29;29.94
65359;BME280;52491;45.900;6.346;2023-03-23T13:55:20;93488.00;;;24.27;29.39
65359;BME280;52491;45.900;6.346;2023-03-23T13:58:10;93486.13;;;24.27;29.53
65359;BME280;52491;45.900;6.346;2023-03-23T14:00:47;93484.00;;;24.24;29.67
65359;BME280;52491;45.900;6.346;2023-03-23T14:03:17;93496.78;;;24.22;29.79
65359;BME280;52491;45.900;6.346;2023-03-23T14:10:54;93506.41;;;24.23;29.80
65359;BME280;52491;45.900;6.346;2023-03-23T14:16:27;93508.53;;;24.21;29.54
65359;BME280;52491;45.900;6.346;2023-03-23T14:18:58;93508.53;;;24.21;29.69
65359;BME280;52491;45.900;6.346;2023-03-23T14:24:04;93509.31;;;24.22;29.73
65359;BME280;52491;45.900;6.346;2023-03-23T14:26:34;93510.66;;;24.19;29.74
65359;BME280;52491;45.900;6.346;2023-03-23T14:29:00;93506.41;;;24.18;29.83
65359;BME280;52491;45.900;6.346;2023-03-23T14:31:27;93519.72;;;24.18;30.01
65359;BME280;52491;45.900;6.346;2023-03-23T14:33:54;93513.31;;;24.19;29.95
65359;BME280;52491;45.900;6.346;2023-03-23T14:36:26;93509.59;;;24.20;29.83
65359;BME280;52491;45.900;6.346;2023-03-23T14:39:02;93506.13;;;24.20;30.02
65359;BME280;52491;45.900;6.346;2023-03-23T14:41:31;93499.19;;;24.19;29.80
65359;BME280;52491;45.900;6.346;2023-03-23T14:44:00;93494.66;;;24.19;30.18
65359;BME280;52491;45.900;6.346;2023-03-23T14:46:26;93500.00;;;24.19;29.92
65359;BME280;52491;45.900;6.346;2023-03-23T14:48:52;93513.06;;;24.21;30.03
65359;BME280;52491;45.900;6.346;2023-03-23T14:51:20;93521.06;;;24.21;29.91
65359;BME280;52491;45.900;6.346;2023-03-23T14:53:46;93521.59;;;24.23;29.94
65359;BME280;52491;45.900;6.346;2023-03-23T14:56:18;93525.28;;;24.22;29.71
65359;BME280;52491;45.900;6.346;2023-03-23T14:58:46;93527.16;;;24.21;29.68
65359;BME280;52491;45.900;6.346;2023-03-23T15:01:18;93519.97;;;24.22;29.90